createdAt,value
2022-11-14T00:01:57.577Z,4.14
2022-11-14T00:04:30.053Z,4.09
2022-11-14T00:07:02.624Z,4.02
2022-11-14T00:09:35.273Z,3.96
2022-11-14T00:12:07.720Z,3.97
2022-11-14T00:14:40.295Z,3.92
2022-11-14T00:17:12.856Z,3.84
2022-11-14T00:19:45.367Z,3.81
2022-11-14T00:22:17.974Z,3.78
2022-11-14T00:24:50.523Z,3.77
2022-11-14T00:27:23.219Z,3.78
2022-11-14T00:29:55.764Z,3.77
2022-11-14T00:32:28.348Z,3.73
2022-11-14T00:35:00.869Z,3.72
2022-11-14T00:37:33.377Z,3.72
2022-11-14T00:40:06.421Z,3.69
2022-11-14T00:42:38.950Z,3.67
2022-11-14T00:45:12.096Z,3.66
2022-11-14T00:47:44.545Z,3.63
2022-11-14T00:50:17.303Z,3.61
2022-11-14T00:52:49.776Z,3.60
2022-11-14T00:55:22.269Z,3.58
2022-11-14T00:57:54.945Z,3.56
2022-11-14T01:00:27.519Z,3.54
2022-11-14T01:03:00.112Z,3.47
2022-11-14T01:05:32.628Z,3.42
2022-11-14T01:08:05.085Z,3.38
2022-11-14T01:10:47.761Z,3.29
2022-11-14T01:13:20.334Z,3.27
2022-11-14T01:15:54.810Z,3.17
2022-11-14T01:18:27.597Z,3.13
2022-11-14T01:21:00.397Z,3.06
2022-11-14T01:23:33.101Z,3.02
2022-11-14T01:26:13.080Z,2.97
2022-11-14T01:28:45.685Z,2.97
2022-11-14T01:31:23.929Z,2.99
2022-11-14T01:33:56.421Z,2.98
2022-11-14T01:36:29.350Z,2.97
2022-11-14T01:39:01.820Z,2.88
2022-11-14T01:41:34.300Z,2.87
2022-11-14T01:44:37.153Z,2.86
2022-11-14T01:47:16.376Z,2.80
2022-11-14T01:49:54.804Z,2.79
2022-11-14T01:52:40.716Z,2.79
2022-11-14T01:55:13.988Z,2.78
2022-11-14T01:57:49.564Z,2.82
2022-11-14T02:00:22.160Z,2.81
2022-11-14T02:02:55.971Z,2.79
2022-11-14T02:05:30.068Z,2.78
2022-11-14T02:08:02.574Z,2.76
2022-11-14T02:10:35.074Z,2.77
2022-11-14T02:13:08.432Z,2.78
2022-11-14T02:15:41.234Z,2.81
2022-11-14T02:18:13.702Z,2.83
2022-11-14T02:20:46.227Z,2.82
2022-11-14T02:23:30.594Z,2.84
2022-11-14T02:26:03.365Z,2.83
2022-11-14T02:28:36.712Z,2.82
2022-11-14T02:31:09.278Z,2.78
2022-11-14T02:33:42.738Z,2.76
2022-11-14T02:36:15.214Z,2.72
2022-11-14T02:38:47.731Z,2.83
2022-11-14T02:41:20.325Z,2.76
2022-11-14T02:43:52.825Z,2.79
2022-11-14T02:46:25.384Z,2.77
2022-11-14T02:48:57.851Z,2.77
2022-11-14T02:51:30.400Z,2.75
2022-11-14T02:54:02.911Z,2.71
2022-11-14T02:56:35.464Z,2.65
2022-11-14T02:59:07.930Z,2.60
2022-11-14T03:01:40.460Z,2.53
2022-11-14T03:04:13.021Z,2.50
2022-11-14T03:06:45.636Z,2.43
2022-11-14T03:09:18.247Z,2.42
2022-11-14T03:11:50.733Z,2.40
2022-11-14T03:14:23.225Z,2.37
2022-11-14T03:16:55.689Z,2.34
2022-11-14T03:19:28.225Z,2.31
2022-11-14T03:22:00.681Z,2.25
2022-11-14T03:24:33.620Z,2.22
2022-11-14T03:27:06.104Z,2.17
2022-11-14T03:29:38.667Z,2.12
2022-11-14T03:32:11.112Z,2.07
2022-11-14T03:34:43.753Z,2.01
2022-11-14T03:37:16.319Z,1.96
2022-11-14T03:39:48.833Z,1.92
2022-11-14T03:42:21.382Z,1.88
2022-11-14T03:44:53.978Z,1.83
2022-11-14T03:47:26.432Z,1.79
2022-11-14T03:49:58.888Z,1.81
2022-11-14T03:52:31.357Z,1.80
2022-11-14T03:55:04.160Z,1.83
2022-11-14T03:57:36.624Z,1.85
2022-11-14T04:00:10.332Z,1.88
2022-11-14T04:02:42.776Z,1.88
2022-11-14T04:05:15.454Z,1.89
2022-11-14T04:07:47.939Z,1.92
2022-11-14T04:10:20.810Z,1.90
2022-11-14T04:12:54.144Z,1.91
2022-11-14T04:15:26.652Z,1.90
2022-11-14T04:18:00.852Z,1.90
2022-11-14T04:20:33.696Z,1.92
2022-11-14T04:23:06.204Z,1.93
2022-11-14T04:25:38.724Z,1.92
2022-11-14T04:28:12.263Z,1.92
2022-11-14T04:30:47.818Z,1.91
2022-11-14T04:33:20.332Z,1.91
2022-11-14T04:35:52.909Z,1.89
2022-11-14T04:38:25.464Z,1.84
2022-11-14T04:40:58.012Z,1.83
2022-11-14T04:43:30.525Z,1.79
2022-11-14T04:46:02.981Z,1.80
2022-11-14T04:48:35.525Z,1.79
2022-11-14T04:51:08.052Z,1.78
2022-11-14T04:53:40.569Z,1.75
2022-11-14T04:56:13.038Z,1.74
2022-11-14T04:58:45.520Z,1.74
2022-11-14T05:01:18.156Z,1.72
2022-11-14T05:03:50.846Z,1.70
2022-11-14T05:06:23.391Z,1.69
2022-11-14T05:08:55.977Z,1.75
2022-11-14T05:11:29.478Z,1.77
2022-11-14T05:14:02.088Z,1.77
2022-11-14T05:16:34.645Z,1.81
2022-11-14T05:19:07.179Z,1.82
2022-11-14T05:21:39.720Z,1.79
2022-11-14T05:24:12.201Z,1.77
2022-11-14T05:26:44.708Z,1.75
2022-11-14T05:29:17.224Z,1.82
2022-11-14T05:31:49.729Z,1.82
2022-11-14T05:34:22.221Z,1.78
2022-11-14T05:36:54.972Z,1.78
2022-11-14T05:39:27.452Z,1.79
2022-11-14T05:41:59.970Z,1.81
2022-11-14T05:44:32.666Z,1.77
2022-11-14T05:47:05.185Z,1.76
2022-11-14T05:49:37.670Z,1.79
2022-11-14T05:52:10.443Z,1.79
2022-11-14T05:54:43.015Z,1.87
2022-11-14T05:57:15.473Z,1.87
2022-11-14T05:59:48.012Z,1.87
2022-11-14T06:02:20.494Z,1.86
2022-11-14T06:04:53.075Z,1.74
2022-11-14T06:07:25.650Z,1.75
2022-11-14T06:09:59.060Z,1.73
2022-11-14T06:12:32.685Z,1.69
2022-11-14T06:15:05.777Z,1.62
2022-11-14T06:17:38.263Z,1.55
2022-11-14T06:20:13.128Z,1.57
2022-11-14T06:22:45.628Z,1.59
2022-11-14T06:25:18.201Z,1.54
2022-11-14T06:27:50.739Z,1.49
2022-11-14T06:30:23.245Z,1.47
2022-11-14T06:33:01.331Z,1.42
2022-11-14T06:35:33.780Z,1.32
2022-11-14T06:38:06.241Z,1.26
2022-11-14T06:40:38.684Z,1.32
2022-11-14T06:43:11.219Z,1.28
2022-11-14T06:45:43.871Z,1.32
2022-11-14T06:48:16.369Z,1.30
2022-11-14T06:50:57.948Z,1.20
2022-11-14T06:53:32.707Z,1.26
2022-11-14T06:56:09.317Z,1.25
2022-11-14T06:58:48.800Z,1.25
2022-11-14T07:01:25.869Z,1.25
2022-11-14T07:04:00.479Z,1.25
2022-11-14T07:06:32.986Z,1.26
2022-11-14T07:09:05.472Z,1.29
2022-11-14T07:11:37.969Z,1.32
2022-11-14T07:14:10.536Z,1.32
2022-11-14T07:16:43.081Z,1.34
2022-11-14T07:19:15.628Z,1.37
2022-11-14T07:21:48.521Z,1.41
2022-11-14T07:24:20.975Z,1.44
2022-11-14T07:26:53.445Z,1.52
2022-11-14T07:29:25.921Z,1.58
2022-11-14T07:31:58.368Z,1.60
2022-11-14T07:34:30.940Z,1.67
2022-11-14T07:37:03.675Z,1.69
2022-11-14T07:39:36.167Z,1.73
2022-11-14T07:42:08.661Z,1.76
2022-11-14T07:44:41.207Z,1.75
2022-11-14T07:47:13.667Z,1.78
2022-11-14T07:49:46.106Z,1.79
2022-11-14T07:52:18.554Z,1.81
2022-11-14T07:54:51.064Z,1.89
2022-11-14T07:57:23.581Z,2.03
2022-11-14T07:59:56.141Z,2.13
2022-11-14T08:02:28.652Z,2.23
2022-11-14T08:05:01.259Z,2.28
2022-11-14T08:07:33.778Z,2.40
2022-11-14T08:10:07.282Z,2.53
2022-11-14T08:12:40.951Z,2.67
2022-11-14T08:15:14.257Z,2.73
2022-11-14T08:17:46.700Z,2.83
2022-11-14T08:20:19.411Z,2.89
2022-11-14T08:22:53.011Z,2.91
2022-11-14T08:25:25.605Z,3.00
2022-11-14T08:27:58.269Z,3.03
2022-11-14T08:30:31.065Z,3.19
2022-11-14T08:33:05.837Z,3.28
2022-11-14T08:35:38.328Z,3.38
2022-11-14T08:38:10.804Z,3.50
2022-11-14T08:40:43.273Z,3.61
2022-11-14T08:43:15.806Z,3.67
2022-11-14T08:45:48.355Z,3.82
2022-11-14T08:48:20.791Z,3.91
2022-11-14T08:50:53.917Z,3.98
2022-11-14T08:53:26.405Z,4.15
2022-11-14T08:55:58.888Z,4.21
2022-11-14T08:58:32.941Z,4.31
2022-11-14T09:01:07.552Z,4.35
2022-11-14T09:03:40.122Z,4.45
2022-11-14T09:06:12.692Z,4.58
2022-11-14T09:08:45.198Z,4.61
2022-11-14T09:11:19.328Z,4.65
2022-11-14T09:13:51.988Z,4.77
2022-11-14T09:16:24.561Z,4.84
2022-11-14T09:18:57.104Z,4.83
2022-11-14T09:21:29.559Z,4.95
2022-11-14T09:24:02.174Z,5.05
2022-11-14T09:26:34.783Z,5.15
2022-11-14T09:29:08.820Z,5.28
2022-11-14T09:31:41.314Z,5.36
2022-11-14T09:34:14.050Z,5.41
2022-11-14T09:36:46.818Z,5.47
2022-11-14T09:39:19.460Z,5.45
2022-11-14T09:42:17.447Z,5.68
2022-11-14T09:45:14.878Z,5.69
2022-11-14T09:48:04.578Z,5.84
2022-11-14T09:50:48.333Z,5.95
2022-11-14T09:53:40.066Z,6.02
2022-11-14T09:56:24.821Z,6.14
2022-11-14T09:58:57.492Z,6.10
2022-11-14T10:02:20.410Z,6.20
2022-11-14T10:05:28.093Z,6.33
2022-11-14T10:08:15.226Z,6.37
2022-11-14T10:10:56.032Z,6.54
2022-11-14T10:14:04.891Z,6.64
2022-11-14T10:17:18.279Z,6.68
2022-11-14T10:20:04.258Z,6.70
2022-11-14T10:23:01.622Z,6.72
2022-11-14T10:26:07.892Z,6.82
2022-11-14T10:28:46.147Z,6.86
2022-11-14T10:32:02.370Z,6.95
2022-11-14T10:34:52.410Z,7.04
2022-11-14T10:37:37.822Z,7.16
2022-11-14T10:40:18.146Z,7.15
2022-11-14T10:43:02.343Z,7.30
2022-11-14T10:45:47.233Z,7.33
2022-11-14T10:48:35.504Z,7.31
2022-11-14T10:51:24.900Z,7.39
2022-11-14T10:54:12.360Z,7.46
2022-11-14T10:56:50.803Z,7.52
2022-11-14T10:59:23.451Z,7.68
2022-11-14T11:01:58.598Z,7.63
2022-11-14T11:04:40.830Z,7.74
2022-11-14T11:07:44.530Z,7.79
2022-11-14T11:10:42.589Z,7.80
2022-11-14T11:13:32.143Z,8.03
2022-11-14T11:16:05.535Z,8.02
2022-11-14T11:18:38.193Z,8.16
2022-11-14T11:21:14.433Z,8.13
2022-11-14T11:23:54.927Z,8.22
2022-11-14T11:26:31.670Z,8.24
2022-11-14T11:29:24.379Z,8.32
2022-11-14T11:31:59.735Z,8.37
2022-11-14T11:34:33.732Z,8.45
2022-11-14T11:37:09.113Z,8.33
2022-11-14T11:39:49.007Z,8.46
2022-11-14T11:43:36.732Z,8.57
2022-11-14T11:45:50.084Z,8.64
2022-11-14T11:48:27.689Z,8.63
2022-11-14T11:51:03.254Z,8.76
2022-11-14T11:53:43.932Z,8.81
2022-11-14T11:56:25.517Z,8.86
2022-11-14T11:59:41.756Z,8.78
2022-11-14T12:02:26.363Z,8.88
2022-11-14T12:05:00.875Z,8.99
2022-11-14T12:07:44.911Z,9.03
2022-11-14T12:10:27.499Z,9.27
2022-11-14T12:13:33.313Z,9.35
2022-11-14T12:16:28.481Z,9.39
2022-11-14T12:19:45.879Z,9.62
2022-11-14T12:23:09.486Z,9.70
2022-11-14T12:26:22.885Z,9.65
2022-11-14T12:29:13.919Z,9.61
2022-11-14T12:31:47.938Z,9.57
2022-11-14T12:34:34.951Z,9.71
2022-11-14T12:37:20.612Z,9.96
2022-11-14T12:40:06.938Z,9.79
2022-11-14T12:42:48.469Z,9.79
2022-11-14T12:45:36.164Z,9.99
2022-11-14T12:48:31.412Z,10.23
2022-11-14T12:51:27.352Z,9.87
2022-11-14T12:54:02.233Z,10.01
2022-11-14T12:56:34.585Z,9.92
2022-11-14T12:59:25.060Z,9.81
2022-11-14T13:02:08.436Z,9.56
2022-11-14T13:05:19.490Z,9.46
2022-11-14T13:08:44.264Z,9.28
2022-11-14T13:11:50.285Z,9.06
2022-11-14T13:14:41.677Z,8.74
2022-11-14T13:17:35.631Z,8.91
2022-11-14T13:20:46.101Z,9.02
2022-11-14T13:23:27.679Z,8.92
2022-11-14T13:26:09.529Z,8.94
2022-11-14T13:28:47.957Z,9.00
2022-11-14T13:31:36.003Z,9.00
2022-11-14T13:34:28.707Z,8.98
2022-11-14T13:37:26.146Z,9.09
2022-11-14T13:40:12.971Z,8.84
2022-11-14T13:43:17.979Z,8.75
2022-11-14T13:46:15.523Z,8.66
2022-11-14T13:49:03.251Z,8.79
2022-11-14T13:51:43.440Z,8.79
2022-11-14T13:54:18.500Z,8.80
2022-11-14T13:57:24.894Z,8.83
2022-11-14T14:00:08.266Z,8.99
2022-11-14T14:03:15.707Z,8.90
2022-11-14T14:06:33.869Z,8.84
2022-11-14T14:09:33.997Z,8.95
2022-11-14T14:12:33.116Z,8.86
2022-11-14T14:15:42.125Z,8.80
2022-11-14T14:18:45.598Z,8.73
2022-11-14T14:21:52.157Z,8.73
2022-11-14T14:24:50.628Z,8.66
2022-11-14T14:27:41.287Z,8.62
2022-11-14T14:30:18.382Z,8.66
2022-11-14T14:33:13.564Z,8.56
2022-11-14T14:35:54.922Z,8.40
2022-11-14T14:38:29.458Z,8.34
2022-11-14T14:41:02.342Z,8.39
2022-11-14T14:43:35.325Z,8.31
2022-11-14T14:46:08.364Z,8.34
2022-11-14T14:48:44.348Z,8.33
2022-11-14T14:51:34.246Z,8.33
2022-11-14T14:54:07.746Z,8.21
2022-11-14T14:56:52.254Z,8.27
2022-11-14T14:59:28.183Z,8.03
2022-11-14T15:02:00.671Z,7.99
2022-11-14T15:04:39.973Z,8.09
2022-11-14T15:07:22.434Z,7.92
2022-11-14T15:10:07.954Z,7.89
2022-11-14T15:12:42.734Z,7.95
2022-11-14T15:15:20.598Z,7.87
2022-11-14T15:17:56.233Z,7.83
2022-11-14T15:20:29.758Z,7.66
2022-11-14T15:23:15.407Z,7.59
2022-11-14T15:25:47.991Z,7.45
2022-11-14T15:28:21.465Z,7.48
2022-11-14T15:31:03.779Z,7.43
2022-11-14T15:33:36.320Z,7.16
2022-11-14T15:36:17.745Z,7.21
2022-11-14T15:39:40.868Z,7.20
2022-11-14T15:42:14.951Z,7.02
2022-11-14T15:44:48.905Z,7.08
2022-11-14T15:47:28.315Z,6.85
2022-11-14T15:50:04.367Z,6.92
2022-11-14T15:52:47.622Z,6.83
2022-11-14T15:55:23.960Z,6.87
2022-11-14T15:58:21.288Z,6.86
2022-11-14T16:00:53.310Z,6.80
2022-11-14T16:03:25.804Z,6.66
2022-11-14T16:05:58.326Z,6.65
2022-11-14T16:08:31.068Z,6.62
2022-11-14T16:11:03.753Z,6.50
2022-11-14T16:13:36.219Z,6.51
2022-11-14T16:16:08.722Z,6.45
2022-11-14T16:18:41.180Z,6.33
2022-11-14T16:21:18.281Z,6.37
2022-11-14T16:23:50.837Z,6.33
2022-11-14T16:26:25.864Z,6.19
2022-11-14T16:28:59.044Z,6.17
2022-11-14T16:31:31.691Z,6.19
2022-11-14T16:34:04.551Z,6.14
2022-11-14T16:36:37.024Z,6.05
2022-11-14T16:39:11.412Z,6.02
2022-11-14T16:41:43.980Z,5.94
2022-11-14T16:44:17.065Z,5.87
2022-11-14T16:46:49.595Z,5.94
2022-11-14T16:49:22.468Z,5.79
2022-11-14T16:51:56.655Z,5.74
2022-11-14T16:54:29.133Z,5.76
2022-11-14T16:57:01.620Z,5.80
2022-11-14T16:59:34.081Z,5.79
2022-11-14T17:02:07.049Z,5.71
2022-11-14T17:04:39.570Z,5.65
2022-11-14T17:07:13.178Z,5.59
2022-11-14T17:09:45.725Z,5.45
2022-11-14T17:12:18.189Z,5.40
2022-11-14T17:14:50.705Z,5.37
2022-11-14T17:17:23.279Z,5.23
2022-11-14T17:19:55.743Z,5.22
2022-11-14T17:22:28.254Z,5.13
2022-11-14T17:25:00.784Z,5.19
2022-11-14T17:27:33.283Z,5.09
2022-11-14T17:30:06.729Z,5.09
2022-11-14T17:32:39.208Z,5.00
2022-11-14T17:35:11.751Z,4.95
2022-11-14T17:37:44.301Z,4.86
2022-11-14T17:40:16.917Z,4.84
2022-11-14T17:42:49.478Z,4.79
2022-11-14T17:45:21.913Z,4.77
2022-11-14T17:47:54.374Z,4.75
2022-11-14T17:50:26.929Z,4.69
2022-11-14T17:52:59.400Z,4.68
2022-11-14T17:55:31.870Z,4.58
2022-11-14T17:58:04.401Z,4.58
2022-11-14T18:00:36.989Z,4.49
2022-11-14T18:03:09.467Z,4.48
2022-11-14T18:05:42.050Z,4.54
2022-11-14T18:08:14.605Z,4.52
2022-11-14T18:10:47.110Z,4.57
2022-11-14T18:13:19.559Z,4.55
2022-11-14T18:15:52.146Z,4.47
2022-11-14T18:18:24.635Z,4.45
2022-11-14T18:20:57.108Z,4.53
2022-11-14T18:23:29.547Z,4.51
2022-11-14T18:26:12.483Z,4.54
2022-11-14T18:28:45.310Z,4.50
2022-11-14T18:31:17.748Z,4.48
2022-11-14T18:33:50.820Z,4.42
2022-11-14T18:36:24.384Z,4.46
2022-11-14T18:38:58.010Z,4.40
2022-11-14T18:41:30.476Z,4.41
2022-11-14T18:44:05.145Z,4.39
2022-11-14T18:46:38.396Z,4.35
2022-11-14T18:49:11.157Z,4.31
2022-11-14T18:51:43.707Z,4.30
2022-11-14T18:54:17.544Z,4.16
2022-11-14T18:56:51.188Z,4.14
2022-11-14T18:59:23.653Z,4.18
2022-11-14T19:01:56.326Z,4.21
2022-11-14T19:04:29.012Z,4.20
2022-11-14T19:07:01.578Z,4.15
2022-11-14T19:09:34.082Z,4.22
2022-11-14T19:12:18.947Z,4.18
2022-11-14T19:14:51.750Z,4.29
2022-11-14T19:17:24.429Z,4.33
2022-11-14T19:19:57.087Z,4.31
2022-11-14T19:22:29.928Z,4.43
2022-11-14T19:25:04.668Z,4.47
2022-11-14T19:27:39.880Z,4.56
2022-11-14T19:30:13.199Z,4.56
2022-11-14T19:32:45.676Z,4.73
2022-11-14T19:35:20.664Z,4.90
2022-11-14T19:37:53.437Z,5.00
2022-11-14T19:40:26.281Z,5.04
2022-11-14T19:43:01.848Z,5.10
2022-11-14T19:45:35.464Z,5.05
2022-11-14T19:48:08.041Z,5.18
2022-11-14T19:50:40.582Z,5.22
2022-11-14T19:53:13.224Z,5.25
2022-11-14T19:55:45.676Z,5.39
2022-11-14T19:58:18.406Z,5.48
2022-11-14T20:00:50.920Z,5.50
2022-11-14T20:03:23.679Z,5.47
2022-11-14T20:05:56.643Z,5.58
2022-11-14T20:08:29.232Z,5.50
2022-11-14T20:11:04.738Z,5.77
2022-11-14T20:13:42.271Z,5.67
2022-11-14T20:16:19.487Z,5.84
2022-11-14T20:18:58.584Z,5.77
2022-11-14T20:21:34.605Z,5.87
2022-11-14T20:24:11.967Z,5.82
2022-11-14T20:26:45.216Z,5.96
2022-11-14T20:29:17.736Z,5.92
2022-11-14T20:31:50.271Z,6.02
2022-11-14T20:34:23.216Z,6.04
2022-11-14T20:37:10.260Z,6.13
2022-11-14T20:39:43.718Z,6.09
2022-11-14T20:42:16.266Z,6.20
2022-11-14T20:44:48.905Z,6.24
2022-11-14T20:47:22.563Z,6.21
2022-11-14T20:49:55.102Z,6.31
2022-11-14T20:52:27.821Z,6.14
2022-11-14T20:55:00.545Z,6.28
2022-11-14T20:57:36.923Z,6.29
2022-11-14T21:00:10.501Z,6.23
2022-11-14T21:02:43.202Z,6.36
2022-11-14T21:05:15.853Z,6.37
2022-11-14T21:07:48.404Z,6.25
2022-11-14T21:10:39.405Z,6.47
2022-11-14T21:13:34.016Z,6.42
2022-11-14T21:16:12.035Z,6.41
2022-11-14T21:18:48.195Z,6.45
2022-11-14T21:21:26.903Z,6.53
2022-11-14T21:24:04.553Z,6.53
2022-11-14T21:26:39.912Z,6.59
2022-11-14T21:29:14.381Z,6.62
2022-11-14T21:31:47.169Z,6.58
2022-11-14T21:34:19.753Z,6.61
2022-11-14T21:36:52.305Z,6.67
2022-11-14T21:39:25.027Z,6.63
2022-11-14T21:41:57.548Z,6.68
2022-11-14T21:44:30.066Z,6.72
2022-11-14T21:47:02.693Z,6.71
2022-11-14T21:49:35.215Z,6.58
2022-11-14T21:52:07.999Z,6.64
2022-11-14T21:54:40.583Z,6.79
2022-11-14T21:57:13.159Z,6.72
2022-11-14T21:59:45.901Z,6.67
2022-11-14T22:02:36.842Z,6.76
2022-11-14T22:05:09.390Z,6.73
2022-11-14T22:07:42.143Z,6.78
2022-11-14T22:10:15.087Z,6.81
2022-11-14T22:12:47.565Z,6.81
2022-11-14T22:15:20.470Z,6.85
2022-11-14T22:17:54.622Z,6.84
2022-11-14T22:20:27.243Z,6.93
2022-11-14T22:22:59.953Z,6.83
2022-11-14T22:25:32.444Z,6.77
2022-11-14T22:28:05.182Z,6.90
2022-11-14T22:30:37.658Z,6.76
2022-11-14T22:33:10.174Z,6.75
2022-11-14T22:35:42.729Z,6.95
2022-11-14T22:38:15.208Z,7.00
2022-11-14T22:40:47.646Z,6.96
2022-11-14T22:43:22.365Z,6.81
2022-11-14T22:45:59.221Z,6.69
2022-11-14T22:48:34.136Z,6.87
2022-11-14T22:51:28.255Z,6.90
2022-11-14T22:54:00.749Z,7.03
2022-11-14T22:56:33.262Z,7.03
2022-11-14T22:59:05.828Z,6.94
2022-11-14T23:01:38.309Z,6.98
2022-11-14T23:04:10.978Z,6.99
2022-11-14T23:06:43.477Z,7.00
2022-11-14T23:09:15.962Z,6.97
2022-11-14T23:11:48.465Z,7.05
2022-11-14T23:14:20.996Z,7.03
2022-11-14T23:16:53.466Z,6.96
2022-11-14T23:19:25.977Z,6.98
2022-11-14T23:21:58.683Z,7.10
2022-11-14T23:24:31.197Z,7.17
2022-11-14T23:27:03.821Z,7.17
2022-11-14T23:29:36.325Z,7.23
2022-11-14T23:32:08.991Z,7.23
2022-11-14T23:34:41.518Z,7.25
2022-11-14T23:37:13.972Z,7.23
2022-11-14T23:39:46.456Z,7.25
2022-11-14T23:42:19.208Z,7.29
2022-11-14T23:44:51.750Z,7.36
2022-11-14T23:47:24.325Z,7.39
2022-11-14T23:49:56.921Z,7.35
2022-11-14T23:52:29.458Z,7.46
2022-11-14T23:55:02.636Z,7.39
2022-11-14T23:57:35.107Z,7.52
